DAL1152 KLAX-KSFO
Flight info
| Callsign | DAL1152 |
|---|---|
| Flight time | 0h 50m |
| Altitude | 34000 |
| Route | SUMMR2 STOKD SERFR SERFR4 |
| Aircraft | A320/M-SDE3FGHIRWY/LB1 |
Departure
| Time | 2026-05-08 02:48 |
|---|---|
| Airport | Los Angeles International Airport (KLAX) |
Arrival
| Time | 2026-05-08 03:38 |
|---|---|
| Airport | San Francisco International Airport (KSFO) |
| Time | Latitude | Longitude | Altitude | Speed | Heading |
|---|---|---|---|---|---|
| 2026-05-08 02:24 | 33.94637 | -118.40323 | 126 ft | 0 kts | 263° |
| 2026-05-08 02:41 | 33.94637 | -118.40321 | 125 ft | 2 kts | 263° |
| 2026-05-08 02:41 | 33.94640 | -118.40290 | 125 ft | 4 kts | 271° |
| 2026-05-08 02:41 | 33.94636 | -118.40259 | 125 ft | 4 kts | 294° |
| 2026-05-08 02:41 | 33.94622 | -118.40238 | 122 ft | 2 kts | 343° |
| 2026-05-08 02:42 | 33.94620 | -118.40237 | 122 ft | 0 kts | 345° |
| 2026-05-08 02:44 | 33.94644 | -118.40244 | 124 ft | 8 kts | 348° |
| 2026-05-08 02:44 | 33.94697 | -118.40253 | 123 ft | 7 kts | 352° |
| 2026-05-08 02:44 | 33.94742 | -118.40260 | 124 ft | 6 kts | 352° |
| 2026-05-08 02:44 | 33.94781 | -118.40267 | 124 ft | 6 kts | 350° |
| 2026-05-08 02:45 | 33.94853 | -118.40288 | 125 ft | 11 kts | 356° |
| 2026-05-08 02:45 | 33.94902 | -118.40234 | 124 ft | 10 kts | 79° |
| 2026-05-08 02:45 | 33.94911 | -118.40159 | 125 ft | 8 kts | 82° |
| 2026-05-08 02:45 | 33.94917 | -118.40094 | 124 ft | 7 kts | 83° |
| 2026-05-08 02:46 | 33.94923 | -118.40038 | 125 ft | 6 kts | 83° |
| 2026-05-08 02:46 | 33.94929 | -118.39986 | 125 ft | 7 kts | 83° |
| 2026-05-08 02:46 | 33.94981 | -118.39916 | 122 ft | 13 kts | 10° |
| 2026-05-08 02:46 | 33.95037 | -118.39969 | 123 ft | 11 kts | 278° |
| 2026-05-08 02:47 | 33.95018 | -118.40155 | 124 ft | 51 kts | 262° |
| 2026-05-08 02:47 | 33.94947 | -118.40854 | 122 ft | 114 kts | 263° |
| 2026-05-08 02:47 | 33.94826 | -118.42020 | 126 ft | 164 kts | 263° |
| 2026-05-08 02:47 | 33.94706 | -118.43446 | 522 ft | 179 kts | 263° |
| 2026-05-08 02:48 | 33.94563 | -118.44979 | 1251 ft | 181 kts | 262° |
| 2026-05-08 02:48 | 33.94412 | -118.46479 | 1989 ft | 183 kts | 264° |
| 2026-05-08 02:48 | 33.94309 | -118.48080 | 2332 ft | 203 kts | 268° |
| 2026-05-08 02:48 | 33.94246 | -118.49888 | 2628 ft | 228 kts | 269° |
| 2026-05-08 02:49 | 33.94165 | -118.51894 | 3041 ft | 250 kts | 267° |
| 2026-05-08 02:49 | 33.94021 | -118.53984 | 3763 ft | 258 kts | 266° |
| 2026-05-08 02:49 | 33.93846 | -118.56148 | 4629 ft | 259 kts | 266° |
| 2026-05-08 02:49 | 33.93665 | -118.58321 | 5466 ft | 262 kts | 266° |
| 2026-05-08 02:50 | 33.93481 | -118.60518 | 6283 ft | 265 kts | 266° |
| 2026-05-08 02:50 | 33.93298 | -118.62747 | 7036 ft | 270 kts | 266° |
| 2026-05-08 02:50 | 33.93117 | -118.65015 | 7787 ft | 274 kts | 266° |
| 2026-05-08 02:50 | 33.92936 | -118.67322 | 8524 ft | 280 kts | 266° |
| 2026-05-08 02:51 | 33.92754 | -118.69677 | 9264 ft | 285 kts | 266° |
| 2026-05-08 02:51 | 33.92572 | -118.72074 | 10021 ft | 290 kts | 266° |
| 2026-05-08 02:51 | 33.92384 | -118.74548 | 10427 ft | 308 kts | 266° |
| 2026-05-08 02:51 | 33.92178 | -118.77212 | 10680 ft | 329 kts | 266° |
| 2026-05-08 02:52 | 33.91959 | -118.79995 | 11239 ft | 337 kts | 265° |
| 2026-05-08 02:52 | 33.91741 | -118.82830 | 11800 ft | 344 kts | 268° |
| 2026-05-08 02:52 | 33.91769 | -118.85718 | 12270 ft | 347 kts | 273° |
| 2026-05-08 02:52 | 33.91864 | -118.88612 | 12947 ft | 352 kts | 272° |
| 2026-05-08 02:53 | 33.91953 | -118.91575 | 13598 ft | 357 kts | 272° |
| 2026-05-08 02:53 | 33.92038 | -118.94578 | 14210 ft | 361 kts | 272° |
| 2026-05-08 02:53 | 33.92129 | -118.97640 | 14552 ft | 374 kts | 274° |
| 2026-05-08 02:53 | 33.92534 | -119.00760 | 14939 ft | 382 kts | 285° |
| 2026-05-08 02:54 | 33.93439 | -119.03776 | 15515 ft | 384 kts | 296° |
| 2026-05-08 02:54 | 33.94775 | -119.06565 | 16119 ft | 386 kts | 303° |
| 2026-05-08 02:54 | 33.96202 | -119.09314 | 16745 ft | 388 kts | 303° |
| 2026-05-08 02:54 | 33.97632 | -119.12083 | 17363 ft | 390 kts | 302° |
| 2026-05-08 02:55 | 33.99072 | -119.14878 | 17990 ft | 393 kts | 302° |
| 2026-05-08 02:55 | 34.02567 | -119.19937 | 19062 ft | 397 kts | 321° |
| 2026-05-08 02:55 | 34.04805 | -119.21921 | 19563 ft | 400 kts | 326° |
| 2026-05-08 02:56 | 34.07085 | -119.23866 | 20083 ft | 403 kts | 325° |
| 2026-05-08 02:56 | 34.09356 | -119.25810 | 20568 ft | 407 kts | 325° |
| 2026-05-08 02:56 | 34.11670 | -119.27795 | 21047 ft | 410 kts | 325° |
| 2026-05-08 02:56 | 34.14008 | -119.29803 | 21519 ft | 414 kts | 325° |
| 2026-05-08 02:57 | 34.16353 | -119.31822 | 21988 ft | 417 kts | 325° |
| 2026-05-08 02:57 | 34.18723 | -119.33868 | 22455 ft | 420 kts | 325° |
| 2026-05-08 02:57 | 34.21111 | -119.35933 | 22901 ft | 423 kts | 325° |
| 2026-05-08 02:57 | 34.23510 | -119.38008 | 23336 ft | 426 kts | 325° |
| 2026-05-08 02:58 | 34.25928 | -119.40101 | 23737 ft | 429 kts | 325° |
| 2026-05-08 02:58 | 34.28360 | -119.42206 | 24101 ft | 431 kts | 325° |
| 2026-05-08 02:58 | 34.30809 | -119.44321 | 24459 ft | 433 kts | 325° |
| 2026-05-08 02:58 | 34.33265 | -119.46442 | 24816 ft | 435 kts | 325° |
| 2026-05-08 02:59 | 34.35732 | -119.48576 | 25162 ft | 437 kts | 325° |
| 2026-05-08 02:59 | 34.38218 | -119.50730 | 25489 ft | 439 kts | 325° |
| 2026-05-08 02:59 | 34.40687 | -119.52921 | 25831 ft | 441 kts | 321° |
| 2026-05-08 02:59 | 34.42933 | -119.55468 | 26154 ft | 444 kts | 315° |
| 2026-05-08 03:00 | 34.45110 | -119.58153 | 26474 ft | 446 kts | 315° |
| 2026-05-08 03:00 | 34.46552 | -119.59930 | 26696 ft | 448 kts | 315° |
| 2026-05-08 03:00 | 34.48744 | -119.62624 | 27009 ft | 450 kts | 315° |
| 2026-05-08 03:00 | 34.51663 | -119.66210 | 27420 ft | 452 kts | 315° |
| 2026-05-08 03:01 | 34.53870 | -119.68931 | 27727 ft | 454 kts | 315° |
| 2026-05-08 03:01 | 34.56091 | -119.71672 | 28018 ft | 456 kts | 315° |
| 2026-05-08 03:01 | 34.57593 | -119.73528 | 28215 ft | 457 kts | 315° |
| 2026-05-08 03:01 | 34.59824 | -119.76282 | 28490 ft | 459 kts | 315° |
| 2026-05-08 03:02 | 34.62038 | -119.79013 | 28770 ft | 460 kts | 315° |
| 2026-05-08 03:02 | 34.64286 | -119.81791 | 29026 ft | 462 kts | 315° |
| 2026-05-08 03:02 | 34.66542 | -119.84585 | 29226 ft | 465 kts | 315° |
| 2026-05-08 03:02 | 34.68810 | -119.87400 | 29479 ft | 466 kts | 315° |
| 2026-05-08 03:03 | 34.71047 | -119.90178 | 30176 ft | 457 kts | 315° |
| 2026-05-08 03:03 | 34.73269 | -119.92935 | 30582 ft | 455 kts | 315° |
| 2026-05-08 03:03 | 34.75483 | -119.95676 | 30901 ft | 454 kts | 315° |
| 2026-05-08 03:03 | 34.77695 | -119.98420 | 31170 ft | 455 kts | 315° |
| 2026-05-08 03:04 | 34.79921 | -120.01184 | 31430 ft | 456 kts | 315° |
| 2026-05-08 03:04 | 34.82134 | -120.03937 | 31757 ft | 455 kts | 314° |
| 2026-05-08 03:04 | 34.84345 | -120.06695 | 32091 ft | 454 kts | 315° |
| 2026-05-08 03:04 | 34.86549 | -120.09448 | 32413 ft | 453 kts | 314° |
| 2026-05-08 03:05 | 34.88745 | -120.12194 | 32739 ft | 452 kts | 314° |
| 2026-05-08 03:05 | 34.90928 | -120.14922 | 33162 ft | 449 kts | 314° |
| 2026-05-08 03:05 | 34.93110 | -120.17644 | 33471 ft | 448 kts | 314° |
| 2026-05-08 03:05 | 34.95284 | -120.20358 | 33809 ft | 447 kts | 314° |
| 2026-05-08 03:06 | 34.97453 | -120.23069 | 34044 ft | 447 kts | 314° |
| 2026-05-08 03:06 | 35.01833 | -120.28563 | 34089 ft | 457 kts | 314° |
| 2026-05-08 03:07 | 35.06302 | -120.34174 | 34083 ft | 462 kts | 313° |
| 2026-05-08 03:07 | 35.10818 | -120.39751 | 34085 ft | 463 kts | 315° |
| 2026-05-08 03:08 | 35.15501 | -120.45011 | 34081 ft | 457 kts | 318° |
| 2026-05-08 03:08 | 35.20264 | -120.50177 | 34094 ft | 458 kts | 318° |
| 2026-05-08 03:09 | 35.24990 | -120.55408 | 34105 ft | 459 kts | 317° |
| 2026-05-08 03:09 | 35.29685 | -120.60706 | 34097 ft | 459 kts | 317° |
| 2026-05-08 03:10 | 35.34372 | -120.66012 | 34091 ft | 460 kts | 317° |
| 2026-05-08 03:10 | 35.39080 | -120.71331 | 34091 ft | 460 kts | 317° |
| 2026-05-08 03:11 | 35.43788 | -120.76646 | 34075 ft | 461 kts | 317° |
| 2026-05-08 03:11 | 35.48527 | -120.81954 | 34073 ft | 461 kts | 320° |
| 2026-05-08 03:12 | 35.53639 | -120.86713 | 34062 ft | 462 kts | 322° |
| 2026-05-08 03:12 | 35.58768 | -120.91466 | 34060 ft | 462 kts | 322° |
| 2026-05-08 03:13 | 35.63897 | -120.96236 | 34054 ft | 462 kts | 322° |
| 2026-05-08 03:13 | 35.69006 | -121.00998 | 34058 ft | 461 kts | 322° |
| 2026-05-08 03:14 | 35.74115 | -121.05763 | 34065 ft | 460 kts | 322° |
| 2026-05-08 03:14 | 35.79178 | -121.10483 | 34063 ft | 456 kts | 322° |
| 2026-05-08 03:14 | 35.81692 | -121.12835 | 34046 ft | 440 kts | 322° |
| 2026-05-08 03:15 | 35.84076 | -121.15063 | 34047 ft | 432 kts | 322° |
| 2026-05-08 03:15 | 35.86451 | -121.17285 | 33792 ft | 424 kts | 322° |
| 2026-05-08 03:15 | 35.88776 | -121.19466 | 33535 ft | 420 kts | 322° |
| 2026-05-08 03:15 | 35.91144 | -121.21690 | 33280 ft | 434 kts | 322° |
| 2026-05-08 03:16 | 35.93586 | -121.23990 | 33023 ft | 448 kts | 321° |
| 2026-05-08 03:16 | 35.96081 | -121.26337 | 32762 ft | 452 kts | 322° |
| 2026-05-08 03:16 | 35.98590 | -121.28699 | 32502 ft | 452 kts | 322° |
| 2026-05-08 03:16 | 36.01086 | -121.31049 | 32263 ft | 451 kts | 322° |
| 2026-05-08 03:17 | 36.03602 | -121.33421 | 32003 ft | 459 kts | 322° |
| 2026-05-08 03:17 | 36.06152 | -121.35828 | 31751 ft | 462 kts | 323° |
| 2026-05-08 03:17 | 36.08833 | -121.38030 | 31525 ft | 462 kts | 327° |
| 2026-05-08 03:17 | 36.11549 | -121.40137 | 31273 ft | 461 kts | 327° |
| 2026-05-08 03:18 | 36.14268 | -121.42251 | 31035 ft | 461 kts | 328° |
| 2026-05-08 03:18 | 36.16980 | -121.44362 | 30558 ft | 459 kts | 328° |
| 2026-05-08 03:18 | 36.19667 | -121.46461 | 29988 ft | 455 kts | 328° |
| 2026-05-08 03:18 | 36.22298 | -121.48521 | 29468 ft | 451 kts | 327° |
| 2026-05-08 03:19 | 36.24953 | -121.50602 | 29114 ft | 439 kts | 327° |
| 2026-05-08 03:19 | 36.27516 | -121.52608 | 28644 ft | 432 kts | 327° |
| 2026-05-08 03:19 | 36.30026 | -121.54576 | 28191 ft | 425 kts | 327° |
| 2026-05-08 03:19 | 36.32482 | -121.56501 | 27663 ft | 421 kts | 327° |
| 2026-05-08 03:20 | 36.34959 | -121.58443 | 27031 ft | 420 kts | 327° |
| 2026-05-08 03:20 | 36.37416 | -121.60374 | 26554 ft | 416 kts | 327° |
| 2026-05-08 03:20 | 36.39852 | -121.62289 | 26066 ft | 414 kts | 327° |
| 2026-05-08 03:20 | 36.42284 | -121.64202 | 25569 ft | 411 kts | 327° |
| 2026-05-08 03:21 | 36.44692 | -121.66100 | 25055 ft | 409 kts | 327° |
| 2026-05-08 03:21 | 36.47091 | -121.67991 | 24532 ft | 407 kts | 327° |
| 2026-05-08 03:21 | 36.49474 | -121.69867 | 24022 ft | 405 kts | 327° |
| 2026-05-08 03:21 | 36.51851 | -121.71745 | 23454 ft | 404 kts | 327° |
| 2026-05-08 03:22 | 36.54209 | -121.73614 | 22920 ft | 401 kts | 327° |
| 2026-05-08 03:22 | 36.56559 | -121.75476 | 22392 ft | 398 kts | 327° |
| 2026-05-08 03:22 | 36.58889 | -121.77320 | 21891 ft | 396 kts | 327° |
| 2026-05-08 03:22 | 36.61195 | -121.79145 | 21498 ft | 388 kts | 327° |
| 2026-05-08 03:23 | 36.63444 | -121.80920 | 20750 ft | 380 kts | 327° |
| 2026-05-08 03:23 | 36.65663 | -121.82676 | 19936 ft | 374 kts | 327° |
| 2026-05-08 03:23 | 36.67848 | -121.84409 | 19130 ft | 370 kts | 327° |
| 2026-05-08 03:23 | 36.69980 | -121.86102 | 18338 ft | 366 kts | 327° |
| 2026-05-08 03:24 | 36.72125 | -121.87803 | 17606 ft | 366 kts | 327° |
| 2026-05-08 03:24 | 36.74365 | -121.89255 | 17171 ft | 363 kts | 338° |
| 2026-05-08 03:24 | 36.76776 | -121.90168 | 16714 ft | 360 kts | 347° |
| 2026-05-08 03:24 | 36.79217 | -121.90839 | 16255 ft | 359 kts | 347° |
| 2026-05-08 03:25 | 36.81653 | -121.91511 | 15817 ft | 357 kts | 347° |
| 2026-05-08 03:25 | 36.84072 | -121.92184 | 15370 ft | 355 kts | 346° |
| 2026-05-08 03:25 | 36.86471 | -121.92855 | 14949 ft | 353 kts | 347° |
| 2026-05-08 03:25 | 36.88862 | -121.93526 | 14529 ft | 352 kts | 346° |
| 2026-05-08 03:26 | 36.91249 | -121.94199 | 14122 ft | 350 kts | 346° |
| 2026-05-08 03:26 | 36.93617 | -121.94863 | 13671 ft | 348 kts | 347° |
| 2026-05-08 03:26 | 36.95963 | -121.95552 | 13228 ft | 345 kts | 344° |
| 2026-05-08 03:26 | 36.98264 | -121.96360 | 12790 ft | 342 kts | 342° |
| 2026-05-08 03:27 | 37.00537 | -121.97246 | 12361 ft | 340 kts | 341° |
| 2026-05-08 03:27 | 37.02741 | -121.98148 | 11940 ft | 337 kts | 340° |
| 2026-05-08 03:27 | 37.04964 | -121.99061 | 11512 ft | 335 kts | 340° |
| 2026-05-08 03:27 | 37.07167 | -121.99954 | 11080 ft | 332 kts | 341° |
| 2026-05-08 03:28 | 37.09364 | -122.00830 | 10661 ft | 330 kts | 341° |
| 2026-05-08 03:28 | 37.11526 | -122.01677 | 10463 ft | 320 kts | 341° |
| 2026-05-08 03:28 | 37.13621 | -122.02492 | 10343 ft | 308 kts | 341° |
| 2026-05-08 03:28 | 37.15626 | -122.03273 | 10231 ft | 297 kts | 341° |
| 2026-05-08 03:29 | 37.17565 | -122.04029 | 10112 ft | 287 kts | 341° |
| 2026-05-08 03:29 | 37.19451 | -122.04765 | 9903 ft | 281 kts | 340° |
| 2026-05-08 03:29 | 37.21310 | -122.05496 | 9566 ft | 278 kts | 340° |
| 2026-05-08 03:29 | 37.23150 | -122.06222 | 9181 ft | 277 kts | 340° |
| 2026-05-08 03:30 | 37.26811 | -122.07664 | 8452 ft | 275 kts | 340° |
| 2026-05-08 03:30 | 37.30416 | -122.09085 | 7729 ft | 272 kts | 340° |
| 2026-05-08 03:31 | 37.34025 | -122.10508 | 6875 ft | 274 kts | 340° |
| 2026-05-08 03:31 | 37.37607 | -122.11919 | 5980 ft | 266 kts | 341° |
| 2026-05-08 03:32 | 37.39377 | -122.12567 | 5656 ft | 265 kts | 342° |
| 2026-05-08 03:32 | 37.41156 | -122.13178 | 5339 ft | 264 kts | 342° |
| 2026-05-08 03:32 | 37.42923 | -122.13770 | 5016 ft | 261 kts | 343° |
| 2026-05-08 03:32 | 37.44638 | -122.14342 | 4703 ft | 257 kts | 342° |
| 2026-05-08 03:33 | 37.46347 | -122.14918 | 4387 ft | 252 kts | 342° |
| 2026-05-08 03:33 | 37.48026 | -122.15490 | 4080 ft | 247 kts | 342° |
| 2026-05-08 03:33 | 37.49690 | -122.16062 | 3782 ft | 243 kts | 343° |
| 2026-05-08 03:33 | 37.51292 | -122.16613 | 3482 ft | 240 kts | 343° |
| 2026-05-08 03:34 | 37.52814 | -122.17408 | 3132 ft | 235 kts | 324° |
| 2026-05-08 03:34 | 37.53962 | -122.18805 | 2861 ft | 227 kts | 303° |
| 2026-05-08 03:34 | 37.54723 | -122.20514 | 2593 ft | 221 kts | 298° |
| 2026-05-08 03:34 | 37.55439 | -122.22215 | 2332 ft | 218 kts | 297° |
| 2026-05-08 03:35 | 37.56143 | -122.23887 | 2052 ft | 214 kts | 297° |
| 2026-05-08 03:35 | 37.56834 | -122.25524 | 1780 ft | 206 kts | 296° |
| 2026-05-08 03:35 | 37.57483 | -122.27064 | 1516 ft | 192 kts | 296° |
| 2026-05-08 03:35 | 37.58088 | -122.28500 | 1277 ft | 180 kts | 297° |
| 2026-05-08 03:36 | 37.58653 | -122.29843 | 1088 ft | 166 kts | 297° |
| 2026-05-08 03:36 | 37.59171 | -122.31073 | 880 ft | 153 kts | 297° |
| 2026-05-08 03:36 | 37.59663 | -122.32244 | 670 ft | 149 kts | 296° |
| 2026-05-08 03:36 | 37.60141 | -122.33378 | 501 ft | 144 kts | 295° |
| 2026-05-08 03:37 | 37.60604 | -122.34476 | 308 ft | 140 kts | 295° |
| 2026-05-08 03:37 | 37.61047 | -122.35544 | 132 ft | 140 kts | 294° |
| 2026-05-08 03:37 | 37.61493 | -122.36610 | 29 ft | 129 kts | 293° |
| 2026-05-08 03:37 | 37.61818 | -122.37401 | 24 ft | 66 kts | 301° |
| 2026-05-08 03:38 | 37.61884 | -122.37542 | 25 ft | 0 kts | 300° |
| 2026-05-08 03:38 | 37.61908 | -122.37601 | 22 ft | 13 kts | 296° |
| 2026-05-08 03:38 | 37.61950 | -122.37701 | 23 ft | 13 kts | 298° |
| 2026-05-08 03:38 | 37.61978 | -122.37777 | 23 ft | 8 kts | 293° |
| 2026-05-08 03:39 | 37.61993 | -122.37847 | 22 ft | 9 kts | 277° |
| 2026-05-08 03:39 | 37.61979 | -122.37911 | 23 ft | 5 kts | 239° |
| 2026-05-08 03:39 | 37.61972 | -122.37925 | 22 ft | 1 kts | 235° |
| 2026-05-08 03:39 | 37.61963 | -122.37941 | 22 ft | 3 kts | 235° |
| 2026-05-08 03:40 | 37.61958 | -122.37949 | 22 ft | 0 kts | 235° |
| 2026-05-08 03:40 | 37.61958 | -122.37950 | 22 ft | 1 kts | 235° |
| 2026-05-08 03:40 | 37.61951 | -122.37962 | 25 ft | 3 kts | 234° |
| 2026-05-08 03:40 | 37.61923 | -122.37987 | 25 ft | 7 kts | 208° |
| 2026-05-08 03:41 | 37.61876 | -122.38000 | 22 ft | 7 kts | 173° |
| 2026-05-08 03:41 | 37.61838 | -122.37978 | 23 ft | 5 kts | 148° |
| 2026-05-08 03:41 | 37.61807 | -122.37960 | 22 ft | 4 kts | 157° |
| 2026-05-08 03:41 | 37.61770 | -122.37952 | 22 ft | 8 kts | 171° |
| 2026-05-08 03:42 | 37.61717 | -122.37948 | 22 ft | 7 kts | 188° |
| 2026-05-08 03:42 | 37.61633 | -122.37987 | 22 ft | 17 kts | 206° |
| 2026-05-08 03:42 | 37.61558 | -122.38065 | 22 ft | 12 kts | 250° |
| 2026-05-08 03:42 | 37.61573 | -122.38173 | 22 ft | 12 kts | 266° |
| 2026-05-08 03:43 | 37.61544 | -122.38215 | 22 ft | 4 kts | 222° |
| 2026-05-08 03:43 | 37.61535 | -122.38225 | 22 ft | 0 kts | 222° |